Time;durP1;ratioP1;P1;durP2;ratioP2;P2;SDS_P1;SDS_P2;PMS_P1;PMS_P2;Temp;Humidity;BMP_temperature;BMP_pressure;BME280_temperature;BME280_humidity;BME280_pressure;Samples;Min_cycle;Max_cycle;Signal;HPM_P1;HPM_P2
2023/04/06 00:00:21;;;;;;;;;;;;;;;;;;5131726;28;1794;-41
2023/04/06 00:02:48;;;;;;;;;;;;;;;;;;5131691;28;2354;-40
2023/04/06 00:05:15;;;;;;;;;;;;;;;;;;5131720;28;1656;-41
2023/04/06 00:07:43;;;;;;;;;;;;;;;;;;5131451;28;2265;-41
2023/04/06 00:10:10;;;;;;;;;;;;;;;;;;5131666;28;2062;-40
2023/04/06 00:12:37;;;;;;;;;;;;;;;;;;5131555;28;1950;-40
2023/04/06 00:15:08;;;;;;;;;;;;;;;;;;5131479;28;1845;-40
2023/04/06 00:17:35;;;;;;;;;;;;;;;;;;5133118;27;1987;-40
2023/04/06 00:20:02;;;;;;;;;;;;;;;;;;5135519;27;2042;-40
2023/04/06 00:22:30;;;;;;;;;;;;;;;;;;5135419;27;1823;-40
2023/04/06 00:24:57;;;;;;;;;;;;;;;;;;5134826;27;1823;-39
2023/04/06 00:27:25;;;;;;;;;;;;;;;;;;5135392;27;1522;-39
2023/04/06 00:29:52;;;;;;;;;;;;;;;;;;5134991;27;1532;-40
2023/04/06 00:32:22;;;;;;;;;;;;;;;;;;5135166;27;1988;-40
2023/04/06 00:34:49;;;;;;;;;;;;;;;;;;5116481;27;1655;-41
2023/04/06 00:37:16;;;;;;;;;;;;;;;;;;5135412;27;1829;-40
2023/04/06 00:39:44;;;;;;;;;;;;;;;;;;5135213;27;1997;-40
2023/04/06 00:42:15;;;;;;;;;;;;;;;;;;5116374;27;2085;-45
2023/04/06 00:44:42;;;;;;;;;;;;;;;;;;5147279;27;1934;-40
2023/04/06 00:47:10;;;;;;;;;;;;;;;;;;5155606;27;1790;-40
2023/04/06 00:49:37;;;;;;;;;;;;;;;;;;5155526;27;1696;-40
2023/04/06 00:52:04;;;;;;;;;;;;;;;;;;5155394;27;1971;-44
2023/04/06 00:54:32;;;;;;;;;;;;;;;;;;5155375;27;2158;-43
2023/04/06 00:57:00;;;;;;;;;;;;;;;;;;5139987;27;1671;-40
2023/04/06 00:59:29;;;;;;;;;;;;;;;;;;5133257;27;2167;-44
2023/04/06 01:01:57;;;;;;;;;;;;;;;;;;5116338;27;1795;-41
2023/04/06 01:04:41;;;;;;;;;;;;;;;;;;5116155;27;1892;-41
2023/04/06 01:07:15;;;;;;;;;;;;;;;;;;5115691;27;2135;-42
2023/04/06 01:09:56;;;;;;;;;;;;;;;;;;5116038;27;2232;-43
2023/04/06 01:12:26;;;;;;;;;;;;;;;;;;5115808;27;1906;-41
2023/04/06 01:14:53;;;;;;;;;;;;;;;;;;5115999;27;1929;-40
2023/04/06 01:17:21;;;;;;;;;;;;;;;;;;5116002;27;1406;-40
2023/04/06 01:19:51;;;;;;;;;;;;;;;;;;5115855;27;1659;-39
2023/04/06 01:22:25;;;;;;;;;;;;;;;;;;5115460;27;2104;-41
2023/04/06 01:24:58;;;;;;;;;;;;;;;;;;5115697;27;2293;-40
2023/04/06 01:27:42;;;;;;;;;;;;;;;;;;5115640;27;1808;-39
2023/04/06 01:30:12;;;;;;;;;;;;;;;;;;5132931;27;1724;-40
2023/04/06 01:32:58;;;;;;;;;;;;;;;;;;5133951;27;2051;-40
2023/04/06 01:35:51;;;;;;;;;;;;;;;;;;5127986;27;2300;-39
2023/04/06 01:38:20;;;;;;;;;;;;;;;;;;5115582;27;1593;-39
2023/04/06 01:40:48;;;;;;;;;;;;;;;;;;5123733;27;1475;-40
2023/04/06 01:43:18;;;;;;;;;;;;;;;;;;5136028;27;1821;-41
2023/04/06 01:46:15;;;;;;;;;;;;;;;;;;5141222;27;1781;-40
2023/04/06 01:48:44;;;;;;;;;;;;;;;;;;5135845;27;1907;-40
2023/04/06 01:51:18;;;;;;;;;;;;;;;;;;5154737;27;2027;-40
2023/04/06 01:53:51;;;;;;;;;;;;;;;;;;5135954;27;2170;-39
2023/04/06 01:56:22;;;;;;;;;;;;;;;;;;5125700;27;1898;-40
2023/04/06 01:58:58;;;;;;;;;;;;;;;;;;5115138;27;2004;-40
2023/04/06 02:01:29;;;;;;;;;;;;;;;;;;5114850;27;2073;-39
2023/04/06 02:03:57;;;;;;;;;;;;;;;;;;5115061;27;2241;-40
2023/04/06 02:06:25;;;;;;;;;;;;;;;;;;5114898;27;2020;-40
2023/04/06 02:08:52;;;;;;;;;;;;;;;;;;5115150;27;2033;-46
2023/04/06 02:11:22;;;;;;;;;;;;;;;;;;5114992;27;1831;-39
2023/04/06 02:13:53;;;;;;;;;;;;;;;;;;5131904;27;2178;-41
2023/04/06 02:16:24;;;;;;;;;;;;;;;;;;5131993;27;2015;-40
2023/04/06 02:18:51;;;;;;;;;;;;;;;;;;5133310;27;1441;-39
2023/04/06 02:21:20;;;;;;;;;;;;;;;;;;5133055;27;1861;-40
2023/04/06 02:23:47;;;;;;;;;;;;;;;;;;5133090;27;1560;-41
2023/04/06 02:26:15;;;;;;;;;;;;;;;;;;5114488;27;2151;-40
2023/04/06 02:28:42;;;;;;;;;;;;;;;;;;5132980;27;2126;-41
2023/04/06 02:31:10;;;;;;;;;;;;;;;;;;5132958;27;1706;-40
2023/04/06 02:33:38;;;;;;;;;;;;;;;;;;5114379;27;2011;-43
2023/04/06 02:36:06;;;;;;;;;;;;;;;;;;5132857;27;2045;-40
2023/04/06 02:38:33;;;;;;;;;;;;;;;;;;5132660;27;1792;-41
2023/04/06 02:41:02;;;;;;;;;;;;;;;;;;5114300;27;2375;-41
2023/04/06 02:43:29;;;;;;;;;;;;;;;;;;5114163;27;1743;-39
2023/04/06 02:46:20;;;;;;;;;;;;;;;;;;5114665;27;1993;-51
2023/04/06 02:48:47;;;;;;;;;;;;;;;;;;5153383;27;1661;-41
2023/04/06 02:51:14;;;;;;;;;;;;;;;;;;5122705;27;1345;-40
2023/04/06 02:53:47;;;;;;;;;;;;;;;;;;5110775;27;2350;-40
2023/04/06 02:56:15;;;;;;;;;;;;;;;;;;5119260;27;1692;-39
2023/04/06 02:58:47;;;;;;;;;;;;;;;;;;5114036;27;1378;-40
2023/04/06 03:01:15;;;;;;;;;;;;;;;;;;5113400;27;1898;-39
2023/04/06 03:03:43;;;;;;;;;;;;;;;;;;5130840;27;1612;-40
2023/04/06 03:06:18;;;;;;;;;;;;;;;;;;5113566;27;2147;-40
2023/04/06 03:08:49;;;;;;;;;;;;;;;;;;5113652;27;1982;-41
2023/04/06 03:11:17;;;;;;;;;;;;;;;;;;5113817;27;2181;-39
2023/04/06 03:13:44;;;;;;;;;;;;;;;;;;5113691;28;1915;-38
2023/04/06 03:16:12;;;;;;;;;;;;;;;;;;5131759;27;2032;-41
2023/04/06 03:18:40;;;;;;;;;;;;;;;;;;5113367;27;2043;-40
2023/04/06 03:21:08;;;;;;;;;;;;;;;;;;5132193;27;2157;-39
2023/04/06 03:23:44;;;;;;;;;;;;;;;;;;5112538;28;1606;-40
2023/04/06 03:26:12;;;;;;;;;;;;;;;;;;5131976;27;1991;-40
2023/04/06 03:28:40;;;;;;;;;;;;;;;;;;5130659;28;1592;-40
2023/04/06 03:31:07;;;;;;;;;;;;;;;;;;5121324;28;1904;-39
2023/04/06 03:33:44;;;;;;;;;;;;;;;;;;5131920;28;2182;-40
2023/04/06 03:36:19;;;;;;;;;;;;;;;;;;5113535;28;1988;-39
2023/04/06 03:38:46;;;;;;;;;;;;;;;;;;5131945;28;2021;-39
2023/04/06 03:41:14;;;;;;;;;;;;;;;;;;5131922;28;2016;-40
2023/04/06 03:43:49;;;;;;;;;;;;;;;;;;5113520;28;2274;-40
2023/04/06 03:46:17;;;;;;;;;;;;;;;;;;5131739;28;1758;-41
2023/04/06 03:48:49;;;;;;;;;;;;;;;;;;5113373;28;1995;-41
2023/04/06 03:51:17;;;;;;;;;;;;;;;;;;5113453;27;1700;-40
2023/04/06 03:53:47;;;;;;;;;;;;;;;;;;5126985;27;1967;-39
2023/04/06 03:56:14;;;;;;;;;;;;;;;;;;5147781;27;2064;-40
2023/04/06 03:58:41;;;;;;;;;;;;;;;;;;5135905;27;2151;-40
2023/04/06 04:01:09;;;;;;;;;;;;;;;;;;5100727;27;1804;-40
2023/04/06 04:03:36;;;;;;;;;;;;;;;;;;5128908;27;1983;-40
2023/04/06 04:06:04;;;;;;;;;;;;;;;;;;5117058;27;1842;-43
2023/04/06 04:08:32;;;;;;;;;;;;;;;;;;5135463;27;1656;-41
2023/04/06 04:11:01;;;;;;;;;;;;;;;;;;5117338;27;1962;-40
2023/04/06 04:13:28;;;;;;;;;;;;;;;;;;5112616;27;10086;-40
2023/04/06 04:15:56;;;;;;;;;;;;;;;;;;5117080;27;1684;-40
2023/04/06 04:18:23;;;;;;;;;;;;;;;;;;5117055;27;1874;-39
2023/04/06 04:20:51;;;;;;;;;;;;;;;;;;5135379;27;1987;-40
2023/04/06 04:23:20;;;;;;;;;;;;;;;;;;5135510;27;1638;-40
2023/04/06 04:25:48;;;;;;;;;;;;;;;;;;5116957;27;1856;-40
2023/04/06 04:28:16;;;;;;;;;;;;;;;;;;5116871;27;2068;-41
2023/04/06 04:30:46;;;;;;;;;;;;;;;;;;5116869;27;1651;-40
2023/04/06 04:33:14;;;;;;;;;;;;;;;;;;5116737;27;2154;-41
2023/04/06 04:35:42;;;;;;;;;;;;;;;;;;5116665;27;1546;-40
2023/04/06 04:38:13;;;;;;;;;;;;;;;;;;5116700;27;2104;-43
2023/04/06 04:40:45;;;;;;;;;;;;;;;;;;5116736;27;1855;-40
2023/04/06 04:43:12;;;;;;;;;;;;;;;;;;5135085;27;1464;-39
2023/04/06 04:45:40;;;;;;;;;;;;;;;;;;5116676;27;1728;-39
2023/04/06 04:48:23;;;;;;;;;;;;;;;;;;5116558;27;2075;-41
2023/04/06 04:50:56;;;;;;;;;;;;;;;;;;5116543;27;1912;-40
2023/04/06 04:53:28;;;;;;;;;;;;;;;;;;5115773;27;1912;-40
2023/04/06 04:56:02;;;;;;;;;;;;;;;;;;5124674;27;2141;-41
2023/04/06 04:58:30;;;;;;;;;;;;;;;;;;5116883;27;1758;-41
2023/04/06 05:01:00;;;;;;;;;;;;;;;;;;5134960;27;1360;-41
2023/04/06 05:03:28;;;;;;;;;;;;;;;;;;5115325;28;1864;-40
2023/04/06 05:06:02;;;;;;;;;;;;;;;;;;5134436;27;2019;-41
2023/04/06 05:08:33;;;;;;;;;;;;;;;;;;5135617;27;1457;-40
2023/04/06 05:11:01;;;;;;;;;;;;;;;;;;5122387;27;2092;-42
2023/04/06 05:13:33;;;;;;;;;;;;;;;;;;5115931;27;2179;-41
2023/04/06 05:16:06;;;;;;;;;;;;;;;;;;5114325;27;1440;-38
2023/04/06 05:18:35;;;;;;;;;;;;;;;;;;5115874;27;2128;-41
2023/04/06 05:21:04;;;;;;;;;;;;;;;;;;5115901;27;1856;-40
2023/04/06 05:23:40;;;;;;;;;;;;;;;;;;5115670;27;1783;-41
2023/04/06 05:26:07;;;;;;;;;;;;;;;;;;5134142;27;2120;-43
2023/04/06 05:28:35;;;;;;;;;;;;;;;;;;5119796;27;1929;-40
2023/04/06 05:31:04;;;;;;;;;;;;;;;;;;5115815;27;1530;-38
2023/04/06 05:33:41;;;;;;;;;;;;;;;;;;5133890;27;2184;-40
2023/04/06 05:36:11;;;;;;;;;;;;;;;;;;5115267;27;2095;-38
2023/04/06 05:38:43;;;;;;;;;;;;;;;;;;5124225;27;1633;-39
2023/04/06 05:41:31;;;;;;;;;;;;;;;;;;5155138;27;1445;-40
2023/04/06 05:44:01;;;;;;;;;;;;;;;;;;5136140;27;1351;-40
2023/04/06 05:46:30;;;;;;;;;;;;;;;;;;5154106;27;1226;-38
2023/04/06 05:49:01;;;;;;;;;;;;;;;;;;5136007;27;1491;-42
2023/04/06 05:51:34;;;;;;;;;;;;;;;;;;5154382;27;1565;-39
2023/04/06 05:54:02;;;;;;;;;;;;;;;;;;5135649;27;2183;-39
2023/04/06 05:56:32;;;;;;;;;;;;;;;;;;5142916;27;1444;-39
2023/04/06 05:59:01;;;;;;;;;;;;;;;;;;5114843;27;1940;-36
2023/04/06 06:01:30;;;;;;;;;;;;;;;;;;5115206;27;1952;-37
2023/04/06 06:04:00;;;;;;;;;;;;;;;;;;5114861;27;1957;-40
2023/04/06 06:06:30;;;;;;;;;;;;;;;;;;5114674;27;1733;-38
2023/04/06 06:09:15;;;;;;;;;;;;;;;;;;5114519;27;1739;-39
2023/04/06 06:11:52;;;;;;;;;;;;;;;;;;5114841;27;1839;-38
2023/04/06 06:14:24;;;;;;;;;;;;;;;;;;5114563;27;2266;-40
2023/04/06 06:16:51;;;;;;;;;;;;;;;;;;5132702;27;1557;-38
2023/04/06 06:19:18;;;;;;;;;;;;;;;;;;5114532;27;2057;-39
2023/04/06 06:21:46;;;;;;;;;;;;;;;;;;5132951;27;2140;-39
2023/04/06 06:24:14;;;;;;;;;;;;;;;;;;5114464;27;1909;-38
2023/04/06 06:26:41;;;;;;;;;;;;;;;;;;5132962;27;1949;-40
2023/04/06 06:29:11;;;;;;;;;;;;;;;;;;5125199;27;1547;-40
2023/04/06 06:31:39;;;;;;;;;;;;;;;;;;5114332;27;1826;-39
2023/04/06 06:34:06;;;;;;;;;;;;;;;;;;5114310;27;2414;-40
2023/04/06 06:36:35;;;;;;;;;;;;;;;;;;5114232;27;2074;-39
2023/04/06 06:39:06;;;;;;;;;;;;;;;;;;5114559;27;1753;-39
2023/04/06 06:41:34;;;;;;;;;;;;;;;;;;5114019;27;2150;-39
2023/04/06 06:44:02;;;;;;;;;;;;;;;;;;5114069;27;1847;-39
2023/04/06 06:46:29;;;;;;;;;;;;;;;;;;5131725;27;1639;-40
2023/04/06 06:48:57;;;;;;;;;;;;;;;;;;5113043;27;1757;-40
2023/04/06 06:51:24;;;;;;;;;;;;;;;;;;5131781;27;2139;-39
2023/04/06 06:53:52;;;;;;;;;;;;;;;;;;5113532;27;2355;-41
2023/04/06 06:56:19;;;;;;;;;;;;;;;;;;5141259;27;1807;-39
2023/04/06 06:58:46;;;;;;;;;;;;;;;;;;5133642;27;1884;-39
2023/04/06 07:01:13;;;;;;;;;;;;;;;;;;5152433;27;1941;-40
2023/04/06 07:03:41;;;;;;;;;;;;;;;;;;5133369;27;2013;-48
2023/04/06 07:06:09;;;;;;;;;;;;;;;;;;5152348;27;1664;-40
2023/04/06 07:08:39;;;;;;;;;;;;;;;;;;5133717;27;2160;-40
2023/04/06 07:11:07;;;;;;;;;;;;;;;;;;5133684;27;2008;-40
2023/04/06 07:13:37;;;;;;;;;;;;;;;;;;5152112;27;1906;-39
2023/04/06 07:16:04;;;;;;;;;;;;;;;;;;5133509;27;2133;-40
2023/04/06 07:18:32;;;;;;;;;;;;;;;;;;5134209;27;1591;-39
2023/04/06 07:21:02;;;;;;;;;;;;;;;;;;5134168;27;1642;-46
2023/04/06 07:23:29;;;;;;;;;;;;;;;;;;5124300;27;2093;-41
2023/04/06 07:25:57;;;;;;;;;;;;;;;;;;5132476;27;1826;-41
2023/04/06 07:28:24;;;;;;;;;;;;;;;;;;5130953;27;2202;-39
2023/04/06 07:30:54;;;;;;;;;;;;;;;;;;5113465;28;1925;-41
2023/04/06 07:33:22;;;;;;;;;;;;;;;;;;5131990;28;1714;-41
2023/04/06 07:35:50;;;;;;;;;;;;;;;;;;5113412;28;1919;-40
2023/04/06 07:38:17;;;;;;;;;;;;;;;;;;5131944;27;1503;-41
2023/04/06 07:40:45;;;;;;;;;;;;;;;;;;5113195;28;1870;-48
2023/04/06 07:43:12;;;;;;;;;;;;;;;;;;5130476;28;2090;-48
2023/04/06 07:45:40;;;;;;;;;;;;;;;;;;5113343;28;1808;-40
2023/04/06 07:48:09;;;;;;;;;;;;;;;;;;5113355;28;1763;-41
2023/04/06 07:50:37;;;;;;;;;;;;;;;;;;5113253;28;1869;-40
2023/04/06 07:53:05;;;;;;;;;;;;;;;;;;5113233;28;2315;-45
2023/04/06 07:55:33;;;;;;;;;;;;;;;;;;5115841;27;1906;-54
2023/04/06 07:58:01;;;;;;;;;;;;;;;;;;5152342;27;2165;-42
2023/04/06 08:00:28;;;;;;;;;;;;;;;;;;5152400;27;1989;-42
2023/04/06 08:02:55;;;;;;;;;;;;;;;;;;5152267;27;1829;-41
2023/04/06 08:05:23;;;;;;;;;;;;;;;;;;5152191;27;1888;-41
2023/04/06 08:07:50;;;;;;;;;;;;;;;;;;5152050;27;1932;-42
2023/04/06 08:10:17;;;;;;;;;;;;;;;;;;5152454;27;1896;-43
2023/04/06 08:12:44;;;;;;;;;;;;;;;;;;5152571;27;2045;-39
2023/04/06 08:15:12;;;;;;;;;;;;;;;;;;5152421;27;1973;-40
2023/04/06 08:17:39;;;;;;;;;;;;;;;;;;5152159;27;1605;-41
2023/04/06 08:20:07;;;;;;;;;;;;;;;;;;5152196;27;1857;-40
2023/04/06 08:22:34;;;;;;;;;;;;;;;;;;5152218;27;2287;-46
2023/04/06 08:25:01;;;;;;;;;;;;;;;;;;5152243;27;1787;-41
2023/04/06 08:27:28;;;;;;;;;;;;;;;;;;5152270;27;1439;-43
2023/04/06 08:29:55;;;;;;;;;;;;;;;;;;5151984;27;2124;-40
2023/04/06 08:32:23;;;;;;;;;;;;;;;;;;5152274;27;2026;-40
2023/04/06 08:34:52;;;;;;;;;;;;;;;;;;5151872;27;1915;-40
2023/04/06 08:37:20;;;;;;;;;;;;;;;;;;5151925;27;2169;-42
2023/04/06 08:39:47;;;;;;;;;;;;;;;;;;5155007;27;1696;-41
2023/04/06 08:42:21;;;;;;;;;;;;;;;;;;5156079;27;2286;-40
2023/04/06 08:44:50;;;;;;;;;;;;;;;;;;5155784;27;2148;-40
2023/04/06 08:47:18;;;;;;;;;;;;;;;;;;5155414;27;2421;-40
2023/04/06 08:49:48;;;;;;;;;;;;;;;;;;5155526;27;1922;-42
2023/04/06 08:52:17;;;;;;;;;;;;;;;;;;5155779;27;2181;-41
2023/04/06 08:54:44;;;;;;;;;;;;;;;;;;5155771;27;1911;-39
2023/04/06 08:57:12;;;;;;;;;;;;;;;;;;5138327;27;1643;-41
2023/04/06 08:59:40;;;;;;;;;;;;;;;;;;5134684;27;2120;-44
2023/04/06 09:02:12;;;;;;;;;;;;;;;;;;5134663;27;1938;-49
2023/04/06 09:04:39;;;;;;;;;;;;;;;;;;5133720;27;1634;-40
2023/04/06 09:07:06;;;;;;;;;;;;;;;;;;5134393;27;1840;-40
2023/04/06 09:09:34;;;;;;;;;;;;;;;;;;5134618;27;2427;-41
2023/04/06 09:12:05;;;;;;;;;;;;;;;;;;5134518;27;1815;-42
2023/04/06 09:14:34;;;;;;;;;;;;;;;;;;5134392;27;2031;-40
2023/04/06 09:17:01;;;;;;;;;;;;;;;;;;5134159;27;1319;-45
2023/04/06 09:19:28;;;;;;;;;;;;;;;;;;5134289;27;1759;-41
2023/04/06 09:22:06;;;;;;;;;;;;;;;;;;5134449;27;1441;-42
2023/04/06 09:24:44;;;;;;;;;;;;;;;;;;5134487;27;2306;-43
2023/04/06 09:27:12;;;;;;;;;;;;;;;;;;5134047;27;2035;-52
2023/04/06 09:29:40;;;;;;;;;;;;;;;;;;5134558;27;1819;-41
2023/04/06 09:32:11;;;;;;;;;;;;;;;;;;5134178;27;1606;-48
2023/04/06 09:34:39;;;;;;;;;;;;;;;;;;5132422;27;1971;-44
2023/04/06 09:37:13;;;;;;;;;;;;;;;;;;5133767;27;2157;-46
2023/04/06 09:39:40;;;;;;;;;;;;;;;;;;5133370;27;2372;-46
2023/04/06 09:42:08;;;;;;;;;;;;;;;;;;5133804;27;2136;-49
2023/04/06 09:44:35;;;;;;;;;;;;;;;;;;5133869;27;1781;-41
2023/04/06 09:47:05;;;;;;;;;;;;;;;;;;5132290;27;2050;-40
2023/04/06 09:49:35;;;;;;;;;;;;;;;;;;5133087;27;1983;-41
2023/04/06 09:52:03;;;;;;;;;;;;;;;;;;5133346;27;2135;-44
2023/04/06 09:54:31;;;;;;;;;;;;;;;;;;5114834;27;1942;-47
2023/04/06 09:57:07;;;;;;;;;;;;;;;;;;5135383;27;2059;-42
2023/04/06 09:59:43;;;;;;;;;;;;;;;;;;5133252;27;1839;-48
2023/04/06 10:02:22;;;;;;;;;;;;;;;;;;5133477;27;1916;-44
2023/04/06 10:04:53;;;;;;;;;;;;;;;;;;5133484;27;2229;-52
2023/04/06 10:07:21;;;;;;;;;;;;;;;;;;5133602;27;2001;-57
2023/04/06 10:09:48;;;;;;;;;;;;;;;;;;5133606;27;2110;-51
2023/04/06 10:12:16;;;;;;;;;;;;;;;;;;5133175;27;1962;-54
2023/04/06 10:14:43;;;;;;;;;;;;;;;;;;5133186;27;1974;-53
2023/04/06 10:17:11;;;;;;;;;;;;;;;;;;5133089;27;1633;-58
2023/04/06 10:19:45;;;;;;;;;;;;;;;;;;5133001;27;2014;-41
2023/04/06 10:22:18;;;;;;;;;;;;;;;;;;5132955;27;2297;-53
2023/04/06 10:24:45;;;;;;;;;;;;;;;;;;5133008;27;1327;-44
2023/04/06 10:27:12;;;;;;;;;;;;;;;;;;5141649;27;1768;-51
2023/04/06 10:29:46;;;;;;;;;;;;;;;;;;5152879;27;1689;-54
2023/04/06 10:32:13;;;;;;;;;;;;;;;;;;5153544;27;2009;-51
2023/04/06 10:34:41;;;;;;;;;;;;;;;;;;5153143;27;1995;-56
2023/04/06 10:37:13;;;;;;;;;;;;;;;;;;5153338;27;2328;-44
2023/04/06 10:39:54;;;;;;;;;;;;;;;;;;5153750;27;1708;-49
2023/04/06 10:42:25;;;;;;;;;;;;;;;;;;5153536;27;1812;-44
2023/04/06 10:44:52;;;;;;;;;;;;;;;;;;5153519;27;1979;-43
2023/04/06 10:47:19;;;;;;;;;;;;;;;;;;5153424;27;2148;-40
2023/04/06 10:49:47;;;;;;;;;;;;;;;;;;5153355;27;1968;-40
2023/04/06 10:52:14;;;;;;;;;;;;;;;;;;5153276;27;1458;-47
2023/04/06 10:54:43;;;;;;;;;;;;;;;;;;5152950;27;1902;-46
2023/04/06 10:57:12;;;;;;;;;;;;;;;;;;5136327;27;1499;-44
2023/04/06 10:59:44;;;;;;;;;;;;;;;;;;5114095;27;2165;-48
2023/04/06 11:02:19;;;;;;;;;;;;;;;;;;5132375;27;1823;-51
2023/04/06 11:04:53;;;;;;;;;;;;;;;;;;5132160;27;2187;-42
2023/04/06 11:07:29;;;;;;;;;;;;;;;;;;5131720;27;2053;-40
2023/04/06 11:09:57;;;;;;;;;;;;;;;;;;5131521;27;1943;-40
2023/04/06 11:12:41;;;;;;;;;;;;;;;;;;5132058;27;1973;-39
2023/04/06 11:15:08;;;;;;;;;;;;;;;;;;5132251;27;2338;-40
2023/04/06 11:17:36;;;;;;;;;;;;;;;;;;5131186;27;1907;-39
2023/04/06 11:20:04;;;;;;;;;;;;;;;;;;5132026;27;1903;-38
2023/04/06 11:22:32;;;;;;;;;;;;;;;;;;5132400;27;2290;-38
2023/04/06 11:25:06;;;;;;;;;;;;;;;;;;5131492;27;2401;-38
2023/04/06 11:27:34;;;;;;;;;;;;;;;;;;5113678;28;2248;-39
2023/04/06 11:30:02;;;;;;;;;;;;;;;;;;5132001;28;1603;-38
2023/04/06 11:32:29;;;;;;;;;;;;;;;;;;5131933;28;1919;-39
2023/04/06 11:34:57;;;;;;;;;;;;;;;;;;5132024;28;1974;-56
2023/04/06 11:37:26;;;;;;;;;;;;;;;;;;5132159;28;2180;-54
2023/04/06 11:39:54;;;;;;;;;;;;;;;;;;5131890;27;2032;-53
2023/04/06 11:42:22;;;;;;;;;;;;;;;;;;5131969;28;1868;-55
2023/04/06 11:44:52;;;;;;;;;;;;;;;;;;5132118;28;2142;-52
2023/04/06 11:47:20;;;;;;;;;;;;;;;;;;5131654;27;1268;-47
2023/04/06 11:49:48;;;;;;;;;;;;;;;;;;5136839;27;2064;-45
2023/04/06 11:52:19;;;;;;;;;;;;;;;;;;5152637;27;1577;-55
2023/04/06 11:54:47;;;;;;;;;;;;;;;;;;5152392;27;2037;-50
2023/04/06 11:57:15;;;;;;;;;;;;;;;;;;5134766;27;1892;-39
2023/04/06 11:59:42;;;;;;;;;;;;;;;;;;5131767;28;2145;-54
2023/04/06 12:02:10;;;;;;;;;;;;;;;;;;5131716;27;1946;-57
2023/04/06 12:04:37;;;;;;;;;;;;;;;;;;5131803;28;1796;-38
2023/04/06 12:07:05;;;;;;;;;;;;;;;;;;5131826;28;1844;-39
2023/04/06 12:09:34;;;;;;;;;;;;;;;;;;5131738;27;2006;-39
2023/04/06 12:12:03;;;;;;;;;;;;;;;;;;5131499;27;1829;-38
2023/04/06 12:14:30;;;;;;;;;;;;;;;;;;5134498;27;1822;-39
2023/04/06 12:16:58;;;;;;;;;;;;;;;;;;5135731;27;2095;-39
2023/04/06 12:19:25;;;;;;;;;;;;;;;;;;5136026;27;2146;-39
2023/04/06 12:21:54;;;;;;;;;;;;;;;;;;5135273;27;2257;-54
2023/04/06 12:24:21;;;;;;;;;;;;;;;;;;5135374;27;1534;-49
2023/04/06 12:26:49;;;;;;;;;;;;;;;;;;5135235;27;1966;-55
2023/04/06 12:29:20;;;;;;;;;;;;;;;;;;5117746;27;1766;-45
2023/04/06 12:31:47;;;;;;;;;;;;;;;;;;5135100;27;1836;-50
2023/04/06 12:34:14;;;;;;;;;;;;;;;;;;5135087;27;1804;-52
2023/04/06 12:36:41;;;;;;;;;;;;;;;;;;5135046;27;1909;-40
2023/04/06 12:39:08;;;;;;;;;;;;;;;;;;5134946;27;2002;-44
2023/04/06 12:41:36;;;;;;;;;;;;;;;;;;5135143;27;2279;-40
2023/04/06 12:44:04;;;;;;;;;;;;;;;;;;5135007;27;2096;-40
2023/04/06 12:46:31;;;;;;;;;;;;;;;;;;5135015;27;1883;-47
2023/04/06 12:48:59;;;;;;;;;;;;;;;;;;5135119;27;1975;-47
2023/04/06 12:51:30;;;;;;;;;;;;;;;;;;5134682;27;2086;-40
2023/04/06 12:53:58;;;;;;;;;;;;;;;;;;5135038;27;1935;-48
2023/04/06 12:56:25;;;;;;;;;;;;;;;;;;5134755;27;2234;-39
2023/04/06 12:58:52;;;;;;;;;;;;;;;;;;5134897;27;2146;-51
2023/04/06 13:01:20;;;;;;;;;;;;;;;;;;5134632;27;1826;-39
2023/04/06 13:03:48;;;;;;;;;;;;;;;;;;5134536;27;1566;-39
2023/04/06 13:06:15;;;;;;;;;;;;;;;;;;5134380;27;2127;-44
2023/04/06 13:08:42;;;;;;;;;;;;;;;;;;5134527;27;2272;-46
2023/04/06 13:11:10;;;;;;;;;;;;;;;;;;5134544;27;2158;-47
2023/04/06 13:13:37;;;;;;;;;;;;;;;;;;5134415;27;1699;-44
2023/04/06 13:16:06;;;;;;;;;;;;;;;;;;5134771;27;1993;-41
2023/04/06 13:18:34;;;;;;;;;;;;;;;;;;5134305;27;2235;-40
2023/04/06 13:21:01;;;;;;;;;;;;;;;;;;5134469;27;1906;-53
2023/04/06 13:23:28;;;;;;;;;;;;;;;;;;5116092;27;1712;-57
2023/04/06 13:26:02;;;;;;;;;;;;;;;;;;5114618;27;2170;-40
2023/04/06 13:28:31;;;;;;;;;;;;;;;;;;5134377;27;1680;-53
2023/04/06 13:30:58;;;;;;;;;;;;;;;;;;5133980;27;2135;-48
2023/04/06 13:33:27;;;;;;;;;;;;;;;;;;5133996;27;1965;-57
2023/04/06 13:35:54;;;;;;;;;;;;;;;;;;5133970;27;1933;-39
2023/04/06 13:38:23;;;;;;;;;;;;;;;;;;5134259;27;1882;-38
2023/04/06 13:40:51;;;;;;;;;;;;;;;;;;5133951;27;1979;-40
2023/04/06 13:43:19;;;;;;;;;;;;;;;;;;5133710;27;1662;-38
2023/04/06 13:45:50;;;;;;;;;;;;;;;;;;5115297;27;1794;-38
2023/04/06 13:48:18;;;;;;;;;;;;;;;;;;5092874;28;1842;-38
2023/04/06 13:50:45;;;;;;;;;;;;;;;;;;5092724;28;1958;-39
2023/04/06 13:53:13;;;;;;;;;;;;;;;;;;5092719;28;2033;-39
2023/04/06 13:55:40;;;;;;;;;;;;;;;;;;5092639;28;1986;-39
2023/04/06 13:58:08;;;;;;;;;;;;;;;;;;5092472;28;1979;-39
2023/04/06 14:00:35;;;;;;;;;;;;;;;;;;5092789;28;1228;-38
2023/04/06 14:03:02;;;;;;;;;;;;;;;;;;5092760;28;2046;-38
2023/04/06 14:05:33;;;;;;;;;;;;;;;;;;5092503;28;1903;-53
2023/04/06 14:08:00;;;;;;;;;;;;;;;;;;5092541;28;1719;-39
2023/04/06 14:10:27;;;;;;;;;;;;;;;;;;5097610;28;1901;-42
2023/04/06 14:12:55;;;;;;;;;;;;;;;;;;5112882;28;1832;-51
2023/04/06 14:15:23;;;;;;;;;;;;;;;;;;5112504;28;1914;-40
2023/04/06 14:17:52;;;;;;;;;;;;;;;;;;5112600;28;2088;-40
2023/04/06 14:20:20;;;;;;;;;;;;;;;;;;5112584;28;2091;-40
2023/04/06 14:22:49;;;;;;;;;;;;;;;;;;5112539;28;1782;-41
2023/04/06 14:25:16;;;;;;;;;;;;;;;;;;5112486;27;1968;-43
2023/04/06 14:27:44;;;;;;;;;;;;;;;;;;5112425;28;2143;-41
2023/04/06 14:30:11;;;;;;;;;;;;;;;;;;5112418;28;1925;-40
2023/04/06 14:32:39;;;;;;;;;;;;;;;;;;5112304;28;2009;-39
2023/04/06 14:35:07;;;;;;;;;;;;;;;;;;5112609;28;1932;-38
2023/04/06 14:37:34;;;;;;;;;;;;;;;;;;5112062;28;1909;-38
2023/04/06 14:40:02;;;;;;;;;;;;;;;;;;5112762;28;2090;-38
2023/04/06 14:42:29;;;;;;;;;;;;;;;;;;5112338;28;2012;-41
2023/04/06 14:44:57;;;;;;;;;;;;;;;;;;5112054;28;1708;-38
2023/04/06 14:47:24;;;;;;;;;;;;;;;;;;5138947;27;1930;-38
2023/04/06 14:49:53;;;;;;;;;;;;;;;;;;5153130;27;1812;-39
2023/04/06 14:52:21;;;;;;;;;;;;;;;;;;5152651;27;1952;-38
2023/04/06 14:54:48;;;;;;;;;;;;;;;;;;5153187;27;1614;-38
2023/04/06 14:57:15;;;;;;;;;;;;;;;;;;5135508;27;2022;-56
2023/04/06 14:59:42;;;;;;;;;;;;;;;;;;5132415;27;1804;-39
2023/04/06 15:02:10;;;;;;;;;;;;;;;;;;5132549;27;2221;-40
2023/04/06 15:04:37;;;;;;;;;;;;;;;;;;5132572;27;1771;-39
2023/04/06 15:07:04;;;;;;;;;;;;;;;;;;5132171;27;2226;-38
2023/04/06 15:09:31;;;;;;;;;;;;;;;;;;5132214;27;2124;-38
2023/04/06 15:12:00;;;;;;;;;;;;;;;;;;5132137;27;1890;-39
2023/04/06 15:14:27;;;;;;;;;;;;;;;;;;5132259;27;2277;-39
2023/04/06 15:16:54;;;;;;;;;;;;;;;;;;5113983;27;1988;-38
2023/04/06 15:19:21;;;;;;;;;;;;;;;;;;5132044;27;1741;-38
2023/04/06 15:21:49;;;;;;;;;;;;;;;;;;5132157;27;2026;-48
2023/04/06 15:24:16;;;;;;;;;;;;;;;;;;5132058;27;1782;-39
2023/04/06 15:26:45;;;;;;;;;;;;;;;;;;5132026;27;1826;-52
2023/04/06 15:29:15;;;;;;;;;;;;;;;;;;5131974;28;2390;-40
2023/04/06 15:31:42;;;;;;;;;;;;;;;;;;5131902;28;1627;-43
2023/04/06 15:34:09;;;;;;;;;;;;;;;;;;5132169;28;2109;-47
2023/04/06 15:36:37;;;;;;;;;;;;;;;;;;5132049;28;1909;-49
2023/04/06 15:39:08;;;;;;;;;;;;;;;;;;5131849;28;2123;-47
2023/04/06 15:41:36;;;;;;;;;;;;;;;;;;5131863;28;1678;-47
2023/04/06 15:44:03;;;;;;;;;;;;;;;;;;5131838;28;2109;-52
2023/04/06 15:46:30;;;;;;;;;;;;;;;;;;5131563;27;2091;-52
2023/04/06 15:48:57;;;;;;;;;;;;;;;;;;5133876;27;2122;-39
2023/04/06 15:51:25;;;;;;;;;;;;;;;;;;5136072;27;2299;-53
2023/04/06 15:53:52;;;;;;;;;;;;;;;;;;5135953;27;2158;-56
2023/04/06 15:56:19;;;;;;;;;;;;;;;;;;5123424;27;1913;-53
2023/04/06 15:58:47;;;;;;;;;;;;;;;;;;5135783;27;2119;-50
2023/04/06 16:01:15;;;;;;;;;;;;;;;;;;5135732;27;1524;-39
2023/04/06 16:03:42;;;;;;;;;;;;;;;;;;5135851;27;1968;-54
2023/04/06 16:06:10;;;;;;;;;;;;;;;;;;5135980;27;1795;-44
2023/04/06 16:08:38;;;;;;;;;;;;;;;;;;5136105;27;1789;-39
2023/04/06 16:11:07;;;;;;;;;;;;;;;;;;5135546;27;1723;-40
2023/04/06 16:13:34;;;;;;;;;;;;;;;;;;5135540;27;1756;-39
2023/04/06 16:16:03;;;;;;;;;;;;;;;;;;5135423;27;1977;-40
2023/04/06 16:18:30;;;;;;;;;;;;;;;;;;5135486;27;2121;-39
2023/04/06 16:21:00;;;;;;;;;;;;;;;;;;5135260;27;1509;-38
2023/04/06 16:23:27;;;;;;;;;;;;;;;;;;5135261;27;1982;-41
2023/04/06 16:25:56;;;;;;;;;;;;;;;;;;5135337;27;1862;-39
2023/04/06 16:28:24;;;;;;;;;;;;;;;;;;5135244;27;1948;-39
2023/04/06 16:30:51;;;;;;;;;;;;;;;;;;5135195;27;1607;-39
2023/04/06 16:33:19;;;;;;;;;;;;;;;;;;5135269;27;1810;-40
2023/04/06 16:35:46;;;;;;;;;;;;;;;;;;5134999;27;2466;-46
2023/04/06 16:38:14;;;;;;;;;;;;;;;;;;5135297;27;2102;-44
2023/04/06 16:40:41;;;;;;;;;;;;;;;;;;5135073;27;1874;-43
2023/04/06 16:43:08;;;;;;;;;;;;;;;;;;5135182;27;2110;-46
2023/04/06 16:45:36;;;;;;;;;;;;;;;;;;5134919;27;1737;-40
2023/04/06 16:48:04;;;;;;;;;;;;;;;;;;5134750;27;2127;-51
2023/04/06 16:50:32;;;;;;;;;;;;;;;;;;5134937;27;1206;-40
2023/04/06 16:52:59;;;;;;;;;;;;;;;;;;5134734;27;2145;-45
2023/04/06 16:55:26;;;;;;;;;;;;;;;;;;5134662;27;1863;-45
2023/04/06 16:57:54;;;;;;;;;;;;;;;;;;5134569;27;2148;-40
2023/04/06 17:00:22;;;;;;;;;;;;;;;;;;5134331;27;2163;-52
2023/04/06 17:02:49;;;;;;;;;;;;;;;;;;5134648;27;1456;-42
2023/04/06 17:05:25;;;;;;;;;;;;;;;;;;5134620;27;1715;-45
2023/04/06 17:07:52;;;;;;;;;;;;;;;;;;5134303;27;1378;-40
2023/04/06 17:10:19;;;;;;;;;;;;;;;;;;5134521;27;2029;-44
2023/04/06 17:12:54;;;;;;;;;;;;;;;;;;5134272;27;1994;-42
2023/04/06 17:15:23;;;;;;;;;;;;;;;;;;5134319;27;1973;-39